sensor_id;sensor_type;location;lat;lon;timestamp;P1;durP1;ratioP1;P2;durP2;ratioP2
5569;SDS011;2808;51.240;6.794;2023-07-13T00:00:49;7.20;;;2.13;;
5569;SDS011;2808;51.240;6.794;2023-07-13T00:03:17;12.73;;;3.00;;
5569;SDS011;2808;51.240;6.794;2023-07-13T00:05:44;9.67;;;2.57;;
5569;SDS011;2808;51.240;6.794;2023-07-13T00:08:13;6.57;;;2.13;;
5569;SDS011;2808;51.240;6.794;2023-07-13T00:10:41;7.93;;;1.97;;
5569;SDS011;2808;51.240;6.794;2023-07-13T00:13:12;7.73;;;2.00;;
5569;SDS011;2808;51.240;6.794;2023-07-13T00:15:39;5.63;;;1.60;;
5569;SDS011;2808;51.240;6.794;2023-07-13T00:18:06;14.87;;;2.00;;
5569;SDS011;2808;51.240;6.794;2023-07-13T00:20:34;4.83;;;1.60;;
5569;SDS011;2808;51.240;6.794;2023-07-13T00:23:01;10.03;;;1.97;;
5569;SDS011;2808;51.240;6.794;2023-07-13T00:25:29;7.83;;;2.27;;
5569;SDS011;2808;51.240;6.794;2023-07-13T00:27:56;13.67;;;1.83;;
5569;SDS011;2808;51.240;6.794;2023-07-13T00:30:25;11.23;;;2.13;;
5569;SDS011;2808;51.240;6.794;2023-07-13T00:32:53;11.70;;;1.63;;
5569;SDS011;2808;51.240;6.794;2023-07-13T00:35:21;11.67;;;2.30;;
5569;SDS011;2808;51.240;6.794;2023-07-13T00:37:50;7.33;;;1.90;;
5569;SDS011;2808;51.240;6.794;2023-07-13T00:40:17;5.43;;;1.70;;
5569;SDS011;2808;51.240;6.794;2023-07-13T00:42:45;14.63;;;1.60;;
5569;SDS011;2808;51.240;6.794;2023-07-13T00:48:19;6.70;;;1.70;;
5569;SDS011;2808;51.240;6.794;2023-07-13T00:50:50;11.50;;;2.00;;
5569;SDS011;2808;51.240;6.794;2023-07-13T00:53:21;4.93;;;1.63;;
5569;SDS011;2808;51.240;6.794;2023-07-13T00:55:50;11.33;;;2.00;;
5569;SDS011;2808;51.240;6.794;2023-07-13T00:58:19;6.60;;;1.63;;
5569;SDS011;2808;51.240;6.794;2023-07-13T01:00:47;8.53;;;1.73;;
5569;SDS011;2808;51.240;6.794;2023-07-13T01:03:19;7.53;;;1.80;;
5569;SDS011;2808;51.240;6.794;2023-07-13T01:05:49;5.43;;;1.30;;
5569;SDS011;2808;51.240;6.794;2023-07-13T01:08:19;13.57;;;1.90;;
5569;SDS011;2808;51.240;6.794;2023-07-13T01:10:51;5.90;;;1.50;;
5569;SDS011;2808;51.240;6.794;2023-07-13T01:13:19;8.07;;;1.80;;
5569;SDS011;2808;51.240;6.794;2023-07-13T01:15:47;7.20;;;2.00;;
5569;SDS011;2808;51.240;6.794;2023-07-13T01:18:18;7.17;;;1.70;;
5569;SDS011;2808;51.240;6.794;2023-07-13T01:20:53;5.83;;;1.80;;
5569;SDS011;2808;51.240;6.794;2023-07-13T01:23:22;9.70;;;1.73;;
5569;SDS011;2808;51.240;6.794;2023-07-13T01:25:50;12.90;;;2.60;;
5569;SDS011;2808;51.240;6.794;2023-07-13T01:28:18;18.50;;;2.80;;
5569;SDS011;2808;51.240;6.794;2023-07-13T01:30:46;7.10;;;1.80;;
5569;SDS011;2808;51.240;6.794;2023-07-13T01:33:14;8.87;;;2.30;;
5569;SDS011;2808;51.240;6.794;2023-07-13T01:35:43;9.07;;;1.90;;
5569;SDS011;2808;51.240;6.794;2023-07-13T01:38:13;14.53;;;2.40;;
5569;SDS011;2808;51.240;6.794;2023-07-13T01:40:41;8.10;;;1.90;;
5569;SDS011;2808;51.240;6.794;2023-07-13T01:43:09;9.43;;;2.20;;
5569;SDS011;2808;51.240;6.794;2023-07-13T01:45:37;14.53;;;1.90;;
5569;SDS011;2808;51.240;6.794;2023-07-13T01:48:04;8.87;;;2.07;;
5569;SDS011;2808;51.240;6.794;2023-07-13T01:50:32;5.40;;;1.70;;
5569;SDS011;2808;51.240;6.794;2023-07-13T01:53:00;5.77;;;1.60;;
5569;SDS011;2808;51.240;6.794;2023-07-13T01:55:29;6.50;;;1.57;;
5569;SDS011;2808;51.240;6.794;2023-07-13T01:57:57;7.33;;;1.60;;
5569;SDS011;2808;51.240;6.794;2023-07-13T02:00:24;9.80;;;2.17;;
5569;SDS011;2808;51.240;6.794;2023-07-13T02:02:52;10.23;;;1.70;;
5569;SDS011;2808;51.240;6.794;2023-07-13T02:05:19;13.47;;;1.70;;
5569;SDS011;2808;51.240;6.794;2023-07-13T02:07:46;7.20;;;1.40;;
5569;SDS011;2808;51.240;6.794;2023-07-13T02:10:17;8.47;;;1.87;;
5569;SDS011;2808;51.240;6.794;2023-07-13T02:12:47;6.23;;;1.60;;
5569;SDS011;2808;51.240;6.794;2023-07-13T02:15:15;6.30;;;1.53;;
5569;SDS011;2808;51.240;6.794;2023-07-13T02:17:43;8.20;;;1.77;;
5569;SDS011;2808;51.240;6.794;2023-07-13T02:20:11;9.37;;;2.07;;
5569;SDS011;2808;51.240;6.794;2023-07-13T02:22:38;6.83;;;2.00;;
5569;SDS011;2808;51.240;6.794;2023-07-13T02:25:05;10.60;;;2.20;;
5569;SDS011;2808;51.240;6.794;2023-07-13T02:27:33;11.83;;;2.27;;
5569;SDS011;2808;51.240;6.794;2023-07-13T02:30:02;7.70;;;2.00;;
5569;SDS011;2808;51.240;6.794;2023-07-13T02:32:30;11.97;;;1.80;;
5569;SDS011;2808;51.240;6.794;2023-07-13T02:34:58;8.30;;;1.83;;
5569;SDS011;2808;51.240;6.794;2023-07-13T02:37:26;9.17;;;2.03;;
5569;SDS011;2808;51.240;6.794;2023-07-13T02:39:53;8.00;;;1.70;;
5569;SDS011;2808;51.240;6.794;2023-07-13T02:42:20;6.70;;;1.50;;
5569;SDS011;2808;51.240;6.794;2023-07-13T02:44:48;8.10;;;1.70;;
5569;SDS011;2808;51.240;6.794;2023-07-13T02:47:17;7.10;;;1.73;;
5569;SDS011;2808;51.240;6.794;2023-07-13T02:49:44;10.80;;;2.20;;
5569;SDS011;2808;51.240;6.794;2023-07-13T02:52:12;7.13;;;1.70;;
5569;SDS011;2808;51.240;6.794;2023-07-13T02:54:39;9.60;;;1.80;;
5569;SDS011;2808;51.240;6.794;2023-07-13T02:57:06;8.33;;;1.90;;
5569;SDS011;2808;51.240;6.794;2023-07-13T02:59:34;10.20;;;1.70;;
5569;SDS011;2808;51.240;6.794;2023-07-13T03:02:02;11.30;;;1.63;;
5569;SDS011;2808;51.240;6.794;2023-07-13T03:04:31;10.20;;;2.03;;
5569;SDS011;2808;51.240;6.794;2023-07-13T03:06:57;8.13;;;1.50;;
5569;SDS011;2808;51.240;6.794;2023-07-13T03:09:24;7.30;;;1.73;;
5569;SDS011;2808;51.240;6.794;2023-07-13T03:11:52;13.33;;;2.00;;
5569;SDS011;2808;51.240;6.794;2023-07-13T03:14:20;6.70;;;1.90;;
5569;SDS011;2808;51.240;6.794;2023-07-13T03:16:48;8.90;;;2.00;;
5569;SDS011;2808;51.240;6.794;2023-07-13T03:19:17;8.20;;;2.00;;
5569;SDS011;2808;51.240;6.794;2023-07-13T03:21:45;7.43;;;2.10;;
5569;SDS011;2808;51.240;6.794;2023-07-13T03:24:13;4.10;;;1.60;;
5569;SDS011;2808;51.240;6.794;2023-07-13T03:26:40;9.90;;;1.67;;
5569;SDS011;2808;51.240;6.794;2023-07-13T03:29:08;10.87;;;1.60;;
5569;SDS011;2808;51.240;6.794;2023-07-13T03:31:36;9.93;;;1.87;;
5569;SDS011;2808;51.240;6.794;2023-07-13T03:34:03;8.07;;;1.80;;
5569;SDS011;2808;51.240;6.794;2023-07-13T03:36:31;12.40;;;1.77;;
5569;SDS011;2808;51.240;6.794;2023-07-13T03:39:01;7.57;;;1.97;;
5569;SDS011;2808;51.240;6.794;2023-07-13T03:41:31;14.13;;;1.97;;
5569;SDS011;2808;51.240;6.794;2023-07-13T03:43:58;7.07;;;1.70;;
5569;SDS011;2808;51.240;6.794;2023-07-13T03:46:26;8.43;;;1.80;;
5569;SDS011;2808;51.240;6.794;2023-07-13T03:48:54;7.03;;;1.97;;
5569;SDS011;2808;51.240;6.794;2023-07-13T03:51:21;5.80;;;1.83;;
5569;SDS011;2808;51.240;6.794;2023-07-13T03:53:49;8.50;;;2.17;;
5569;SDS011;2808;51.240;6.794;2023-07-13T03:56:20;10.43;;;1.67;;
5569;SDS011;2808;51.240;6.794;2023-07-13T03:58:49;8.43;;;1.80;;
5569;SDS011;2808;51.240;6.794;2023-07-13T04:01:17;5.47;;;1.60;;
5569;SDS011;2808;51.240;6.794;2023-07-13T04:03:46;8.43;;;1.93;;
5569;SDS011;2808;51.240;6.794;2023-07-13T04:06:15;10.47;;;1.97;;
5569;SDS011;2808;51.240;6.794;2023-07-13T04:08:47;9.27;;;1.80;;
5569;SDS011;2808;51.240;6.794;2023-07-13T04:11:16;10.40;;;2.30;;
5569;SDS011;2808;51.240;6.794;2023-07-13T04:13:48;8.40;;;2.67;;
5569;SDS011;2808;51.240;6.794;2023-07-13T04:16:16;8.53;;;2.10;;
5569;SDS011;2808;51.240;6.794;2023-07-13T04:18:44;13.97;;;5.13;;
5569;SDS011;2808;51.240;6.794;2023-07-13T04:21:12;8.80;;;3.30;;
5569;SDS011;2808;51.240;6.794;2023-07-13T04:23:40;8.17;;;1.90;;
5569;SDS011;2808;51.240;6.794;2023-07-13T04:26:08;6.97;;;2.50;;
5569;SDS011;2808;51.240;6.794;2023-07-13T04:28:36;9.13;;;3.30;;
5569;SDS011;2808;51.240;6.794;2023-07-13T04:31:05;5.43;;;2.00;;
5569;SDS011;2808;51.240;6.794;2023-07-13T04:33:36;6.57;;;2.13;;
5569;SDS011;2808;51.240;6.794;2023-07-13T04:36:04;9.57;;;1.87;;
5569;SDS011;2808;51.240;6.794;2023-07-13T04:38:34;9.53;;;1.70;;
5569;SDS011;2808;51.240;6.794;2023-07-13T04:41:02;10.30;;;1.80;;
5569;SDS011;2808;51.240;6.794;2023-07-13T04:43:32;9.10;;;2.00;;
5569;SDS011;2808;51.240;6.794;2023-07-13T04:46:02;5.93;;;1.67;;
5569;SDS011;2808;51.240;6.794;2023-07-13T04:48:32;8.57;;;1.90;;
5569;SDS011;2808;51.240;6.794;2023-07-13T04:51:00;6.30;;;1.90;;
5569;SDS011;2808;51.240;6.794;2023-07-13T04:53:28;13.17;;;2.30;;
5569;SDS011;2808;51.240;6.794;2023-07-13T04:55:56;16.27;;;3.30;;
5569;SDS011;2808;51.240;6.794;2023-07-13T04:58:23;9.40;;;2.30;;
5569;SDS011;2808;51.240;6.794;2023-07-13T05:00:51;12.97;;;2.60;;
5569;SDS011;2808;51.240;6.794;2023-07-13T05:03:20;7.67;;;2.30;;
5569;SDS011;2808;51.240;6.794;2023-07-13T05:05:54;8.23;;;2.43;;
5569;SDS011;2808;51.240;6.794;2023-07-13T05:08:22;9.23;;;2.10;;
5569;SDS011;2808;51.240;6.794;2023-07-13T05:10:49;10.80;;;2.20;;
5569;SDS011;2808;51.240;6.794;2023-07-13T05:13:17;10.93;;;2.23;;
5569;SDS011;2808;51.240;6.794;2023-07-13T05:15:44;8.40;;;2.00;;
5569;SDS011;2808;51.240;6.794;2023-07-13T05:18:14;12.50;;;2.13;;
5569;SDS011;2808;51.240;6.794;2023-07-13T05:20:56;13.93;;;2.50;;
5569;SDS011;2808;51.240;6.794;2023-07-13T05:23:24;13.27;;;2.63;;
5569;SDS011;2808;51.240;6.794;2023-07-13T05:25:51;7.10;;;1.80;;
5569;SDS011;2808;51.240;6.794;2023-07-13T05:28:18;12.73;;;2.27;;
5569;SDS011;2808;51.240;6.794;2023-07-13T05:30:46;11.13;;;2.00;;
5569;SDS011;2808;51.240;6.794;2023-07-13T05:33:14;7.00;;;2.07;;
5569;SDS011;2808;51.240;6.794;2023-07-13T05:35:42;10.73;;;2.50;;
5569;SDS011;2808;51.240;6.794;2023-07-13T05:38:10;7.10;;;2.30;;
5569;SDS011;2808;51.240;6.794;2023-07-13T05:40:38;8.50;;;2.33;;
5569;SDS011;2808;51.240;6.794;2023-07-13T05:43:05;8.10;;;2.27;;
5569;SDS011;2808;51.240;6.794;2023-07-13T05:45:33;9.73;;;2.50;;
5569;SDS011;2808;51.240;6.794;2023-07-13T05:48:00;10.67;;;2.40;;
5569;SDS011;2808;51.240;6.794;2023-07-13T05:50:27;18.63;;;2.10;;
5569;SDS011;2808;51.240;6.794;2023-07-13T05:52:55;12.10;;;2.50;;
5569;SDS011;2808;51.240;6.794;2023-07-13T05:55:24;9.63;;;2.03;;
5569;SDS011;2808;51.240;6.794;2023-07-13T05:57:51;9.33;;;2.50;;
5569;SDS011;2808;51.240;6.794;2023-07-13T06:00:23;12.20;;;2.20;;
5569;SDS011;2808;51.240;6.794;2023-07-13T06:02:51;12.47;;;2.43;;
5569;SDS011;2808;51.240;6.794;2023-07-13T06:05:18;9.90;;;2.17;;
5569;SDS011;2808;51.240;6.794;2023-07-13T06:07:46;14.97;;;2.30;;
5569;SDS011;2808;51.240;6.794;2023-07-13T06:10:14;8.50;;;2.10;;
5569;SDS011;2808;51.240;6.794;2023-07-13T06:12:42;9.90;;;2.40;;
5569;SDS011;2808;51.240;6.794;2023-07-13T06:15:12;15.07;;;2.50;;
5569;SDS011;2808;51.240;6.794;2023-07-13T06:17:39;6.80;;;2.30;;
5569;SDS011;2808;51.240;6.794;2023-07-13T06:20:10;11.30;;;2.63;;
5569;SDS011;2808;51.240;6.794;2023-07-13T06:22:38;15.90;;;2.80;;
5569;SDS011;2808;51.240;6.794;2023-07-13T06:25:06;17.57;;;2.80;;
5569;SDS011;2808;51.240;6.794;2023-07-13T06:27:34;13.53;;;2.80;;
5569;SDS011;2808;51.240;6.794;2023-07-13T06:33:02;12.57;;;2.70;;
5569;SDS011;2808;51.240;6.794;2023-07-13T06:35:34;9.90;;;3.07;;
5569;SDS011;2808;51.240;6.794;2023-07-13T06:38:04;8.23;;;2.63;;
5569;SDS011;2808;51.240;6.794;2023-07-13T06:40:42;7.47;;;2.30;;
5569;SDS011;2808;51.240;6.794;2023-07-13T06:43:19;9.60;;;2.53;;
5569;SDS011;2808;51.240;6.794;2023-07-13T06:45:48;11.63;;;2.50;;
5569;SDS011;2808;51.240;6.794;2023-07-13T06:48:18;11.40;;;3.27;;
5569;SDS011;2808;51.240;6.794;2023-07-13T06:50:47;14.33;;;3.00;;
5569;SDS011;2808;51.240;6.794;2023-07-13T06:53:16;11.63;;;2.70;;
5569;SDS011;2808;51.240;6.794;2023-07-13T06:55:45;11.03;;;2.70;;
5569;SDS011;2808;51.240;6.794;2023-07-13T06:58:33;10.43;;;2.87;;
5569;SDS011;2808;51.240;6.794;2023-07-13T07:01:05;12.50;;;3.00;;
5569;SDS011;2808;51.240;6.794;2023-07-13T07:03:36;8.70;;;2.40;;
5569;SDS011;2808;51.240;6.794;2023-07-13T07:06:06;14.57;;;3.70;;
5569;SDS011;2808;51.240;6.794;2023-07-13T07:08:44;12.73;;;2.77;;
5569;SDS011;2808;51.240;6.794;2023-07-13T07:11:16;12.83;;;2.93;;
5569;SDS011;2808;51.240;6.794;2023-07-13T07:13:44;12.63;;;3.30;;
5569;SDS011;2808;51.240;6.794;2023-07-13T07:16:13;9.63;;;2.63;;
5569;SDS011;2808;51.240;6.794;2023-07-13T07:18:43;14.60;;;2.90;;
5569;SDS011;2808;51.240;6.794;2023-07-13T07:21:11;11.97;;;3.07;;
5569;SDS011;2808;51.240;6.794;2023-07-13T07:23:39;8.13;;;2.57;;
5569;SDS011;2808;51.240;6.794;2023-07-13T07:26:06;9.67;;;2.80;;
5569;SDS011;2808;51.240;6.794;2023-07-13T07:28:35;11.60;;;2.77;;
5569;SDS011;2808;51.240;6.794;2023-07-13T07:31:02;13.10;;;2.60;;
5569;SDS011;2808;51.240;6.794;2023-07-13T07:33:31;11.43;;;2.53;;
5569;SDS011;2808;51.240;6.794;2023-07-13T07:36:01;11.03;;;3.03;;
5569;SDS011;2808;51.240;6.794;2023-07-13T07:38:29;10.27;;;2.70;;
5569;SDS011;2808;51.240;6.794;2023-07-13T07:40:57;13.13;;;3.27;;
5569;SDS011;2808;51.240;6.794;2023-07-13T07:43:24;12.60;;;2.73;;
5569;SDS011;2808;51.240;6.794;2023-07-13T07:45:52;12.13;;;2.70;;
5569;SDS011;2808;51.240;6.794;2023-07-13T07:48:19;16.77;;;2.70;;
5569;SDS011;2808;51.240;6.794;2023-07-13T07:50:48;11.50;;;2.50;;
5569;SDS011;2808;51.240;6.794;2023-07-13T07:53:15;12.27;;;2.57;;
5569;SDS011;2808;51.240;6.794;2023-07-13T07:55:43;8.40;;;2.50;;
5569;SDS011;2808;51.240;6.794;2023-07-13T07:58:10;8.33;;;2.93;;
5569;SDS011;2808;51.240;6.794;2023-07-13T08:00:38;6.50;;;2.73;;
5569;SDS011;2808;51.240;6.794;2023-07-13T08:03:05;12.70;;;3.60;;
5569;SDS011;2808;51.240;6.794;2023-07-13T08:05:34;12.20;;;3.00;;
5569;SDS011;2808;51.240;6.794;2023-07-13T08:08:03;9.97;;;2.77;;
5569;SDS011;2808;51.240;6.794;2023-07-13T08:10:31;12.60;;;2.93;;
5569;SDS011;2808;51.240;6.794;2023-07-13T08:13:01;9.20;;;2.53;;
5569;SDS011;2808;51.240;6.794;2023-07-13T08:15:28;13.00;;;3.00;;
5569;SDS011;2808;51.240;6.794;2023-07-13T08:17:55;8.70;;;2.53;;
5569;SDS011;2808;51.240;6.794;2023-07-13T08:20:23;13.63;;;3.37;;
5569;SDS011;2808;51.240;6.794;2023-07-13T08:22:50;15.40;;;3.63;;
5569;SDS011;2808;51.240;6.794;2023-07-13T08:25:19;12.70;;;3.60;;
5569;SDS011;2808;51.240;6.794;2023-07-13T08:27:47;18.53;;;3.73;;
5569;SDS011;2808;51.240;6.794;2023-07-13T08:30:15;16.70;;;3.30;;
5569;SDS011;2808;51.240;6.794;2023-07-13T08:32:43;10.50;;;3.07;;
5569;SDS011;2808;51.240;6.794;2023-07-13T08:35:10;17.70;;;3.67;;
5569;SDS011;2808;51.240;6.794;2023-07-13T08:37:38;17.00;;;2.43;;
5569;SDS011;2808;51.240;6.794;2023-07-13T08:40:07;12.00;;;3.20;;
5569;SDS011;2808;51.240;6.794;2023-07-13T08:42:38;12.50;;;3.07;;
5569;SDS011;2808;51.240;6.794;2023-07-13T08:45:17;11.73;;;2.50;;
5569;SDS011;2808;51.240;6.794;2023-07-13T08:47:54;12.40;;;3.03;;
5569;SDS011;2808;51.240;6.794;2023-07-13T08:50:27;14.93;;;4.00;;
5569;SDS011;2808;51.240;6.794;2023-07-13T08:53:00;12.97;;;2.80;;
5569;SDS011;2808;51.240;6.794;2023-07-13T08:55:30;24.27;;;3.87;;
5569;SDS011;2808;51.240;6.794;2023-07-13T08:58:04;15.27;;;3.70;;
5569;SDS011;2808;51.240;6.794;2023-07-13T09:00:38;10.90;;;3.50;;
5569;SDS011;2808;51.240;6.794;2023-07-13T09:03:13;14.97;;;3.40;;
5569;SDS011;2808;51.240;6.794;2023-07-13T09:05:47;12.07;;;3.43;;
5569;SDS011;2808;51.240;6.794;2023-07-13T09:08:25;17.27;;;2.90;;
5569;SDS011;2808;51.240;6.794;2023-07-13T09:11:05;12.73;;;2.83;;
5569;SDS011;2808;51.240;6.794;2023-07-13T09:13:50;12.70;;;3.10;;
5569;SDS011;2808;51.240;6.794;2023-07-13T09:16:25;12.27;;;3.00;;
5569;SDS011;2808;51.240;6.794;2023-07-13T09:18:53;11.97;;;2.90;;
5569;SDS011;2808;51.240;6.794;2023-07-13T09:21:27;12.70;;;2.90;;
5569;SDS011;2808;51.240;6.794;2023-07-13T09:23:58;10.57;;;2.90;;
5569;SDS011;2808;51.240;6.794;2023-07-13T09:26:42;21.97;;;3.73;;
5569;SDS011;2808;51.240;6.794;2023-07-13T09:29:16;12.57;;;2.40;;
5569;SDS011;2808;51.240;6.794;2023-07-13T09:31:53;13.90;;;3.20;;
5569;SDS011;2808;51.240;6.794;2023-07-13T09:34:23;15.20;;;2.90;;
5569;SDS011;2808;51.240;6.794;2023-07-13T09:36:52;12.07;;;3.10;;
5569;SDS011;2808;51.240;6.794;2023-07-13T09:39:21;12.57;;;2.63;;
5569;SDS011;2808;51.240;6.794;2023-07-13T09:41:54;12.73;;;3.20;;
5569;SDS011;2808;51.240;6.794;2023-07-13T09:44:29;15.90;;;3.33;;
5569;SDS011;2808;51.240;6.794;2023-07-13T09:47:00;14.73;;;3.23;;
5569;SDS011;2808;51.240;6.794;2023-07-13T09:49:29;16.23;;;3.47;;
5569;SDS011;2808;51.240;6.794;2023-07-13T09:52:01;27.17;;;3.20;;
5569;SDS011;2808;51.240;6.794;2023-07-13T09:54:32;9.77;;;2.70;;
5569;SDS011;2808;51.240;6.794;2023-07-13T09:57:01;13.90;;;2.90;;
5569;SDS011;2808;51.240;6.794;2023-07-13T09:59:34;11.43;;;2.63;;
5569;SDS011;2808;51.240;6.794;2023-07-13T10:02:18;10.03;;;2.37;;
5569;SDS011;2808;51.240;6.794;2023-07-13T10:04:58;9.13;;;2.60;;
5569;SDS011;2808;51.240;6.794;2023-07-13T10:07:28;10.83;;;2.70;;
5569;SDS011;2808;51.240;6.794;2023-07-13T10:09:57;27.07;;;3.83;;
5569;SDS011;2808;51.240;6.794;2023-07-13T10:12:28;23.77;;;3.27;;
5569;SDS011;2808;51.240;6.794;2023-07-13T10:14:58;13.10;;;2.67;;
5569;SDS011;2808;51.240;6.794;2023-07-13T10:17:29;12.40;;;2.70;;
5569;SDS011;2808;51.240;6.794;2023-07-13T10:19:59;12.27;;;2.97;;
5569;SDS011;2808;51.240;6.794;2023-07-13T10:22:33;11.00;;;2.63;;
5569;SDS011;2808;51.240;6.794;2023-07-13T10:25:16;17.47;;;2.80;;
5569;SDS011;2808;51.240;6.794;2023-07-13T10:27:47;15.63;;;3.00;;
5569;SDS011;2808;51.240;6.794;2023-07-13T10:30:20;16.50;;;2.70;;
5569;SDS011;2808;51.240;6.794;2023-07-13T10:32:53;13.87;;;3.00;;
5569;SDS011;2808;51.240;6.794;2023-07-13T10:35:27;5.83;;;2.20;;
5569;SDS011;2808;51.240;6.794;2023-07-13T10:37:57;10.77;;;2.70;;
5569;SDS011;2808;51.240;6.794;2023-07-13T10:40:32;9.03;;;2.60;;
5569;SDS011;2808;51.240;6.794;2023-07-13T10:43:04;7.03;;;2.07;;
5569;SDS011;2808;51.240;6.794;2023-07-13T10:45:37;18.70;;;2.90;;
5569;SDS011;2808;51.240;6.794;2023-07-13T10:48:04;21.63;;;3.07;;
5569;SDS011;2808;51.240;6.794;2023-07-13T10:50:35;20.77;;;2.90;;
5569;SDS011;2808;51.240;6.794;2023-07-13T10:53:17;9.93;;;2.50;;
5569;SDS011;2808;51.240;6.794;2023-07-13T10:55:57;13.13;;;3.17;;
5569;SDS011;2808;51.240;6.794;2023-07-13T10:58:32;7.80;;;2.77;;
5569;SDS011;2808;51.240;6.794;2023-07-13T11:01:06;13.90;;;2.87;;
5569;SDS011;2808;51.240;6.794;2023-07-13T11:03:37;9.33;;;2.60;;
5569;SDS011;2808;51.240;6.794;2023-07-13T11:06:16;16.63;;;2.60;;
5569;SDS011;2808;51.240;6.794;2023-07-13T11:08:56;28.37;;;4.00;;
5569;SDS011;2808;51.240;6.794;2023-07-13T11:11:32;11.87;;;2.90;;
5569;SDS011;2808;51.240;6.794;2023-07-13T11:14:03;9.17;;;2.83;;
5569;SDS011;2808;51.240;6.794;2023-07-13T11:16:52;9.33;;;2.47;;
5569;SDS011;2808;51.240;6.794;2023-07-13T11:22:14;12.80;;;2.80;;
5569;SDS011;2808;51.240;6.794;2023-07-13T11:24:48;27.33;;;3.17;;
5569;SDS011;2808;51.240;6.794;2023-07-13T11:27:33;15.23;;;2.70;;
5569;SDS011;2808;51.240;6.794;2023-07-13T11:33:09;14.33;;;3.50;;
5569;SDS011;2808;51.240;6.794;2023-07-13T11:35:49;7.57;;;2.20;;
5569;SDS011;2808;51.240;6.794;2023-07-13T11:38:31;6.00;;;2.30;;
5569;SDS011;2808;51.240;6.794;2023-07-13T11:41:03;8.53;;;2.33;;
5569;SDS011;2808;51.240;6.794;2023-07-13T11:43:32;9.90;;;2.53;;
5569;SDS011;2808;51.240;6.794;2023-07-13T11:48:47;9.10;;;2.20;;
5569;SDS011;2808;51.240;6.794;2023-07-13T11:51:19;7.50;;;2.80;;
5569;SDS011;2808;51.240;6.794;2023-07-13T11:53:49;7.30;;;2.30;;
5569;SDS011;2808;51.240;6.794;2023-07-13T11:56:18;10.90;;;3.50;;
5569;SDS011;2808;51.240;6.794;2023-07-13T11:58:48;9.80;;;2.53;;
5569;SDS011;2808;51.240;6.794;2023-07-13T12:01:18;16.30;;;2.40;;
5569;SDS011;2808;51.240;6.794;2023-07-13T12:03:49;8.20;;;2.20;;
5569;SDS011;2808;51.240;6.794;2023-07-13T12:06:25;8.80;;;2.17;;
5569;SDS011;2808;51.240;6.794;2023-07-13T12:08:57;6.30;;;2.00;;
5569;SDS011;2808;51.240;6.794;2023-07-13T12:11:26;9.70;;;2.03;;
5569;SDS011;2808;51.240;6.794;2023-07-13T12:13:53;10.50;;;2.73;;
5569;SDS011;2808;51.240;6.794;2023-07-13T12:16:26;8.60;;;2.50;;
5569;SDS011;2808;51.240;6.794;2023-07-13T12:18:59;8.50;;;2.00;;
5569;SDS011;2808;51.240;6.794;2023-07-13T12:21:30;9.63;;;2.00;;
5569;SDS011;2808;51.240;6.794;2023-07-13T12:23:58;8.00;;;2.00;;
5569;SDS011;2808;51.240;6.794;2023-07-13T12:26:30;12.17;;;2.03;;
5569;SDS011;2808;51.240;6.794;2023-07-13T12:29:00;7.63;;;1.80;;
5569;SDS011;2808;51.240;6.794;2023-07-13T12:31:33;6.20;;;1.70;;
5569;SDS011;2808;51.240;6.794;2023-07-13T12:34:06;7.00;;;1.60;;
5569;SDS011;2808;51.240;6.794;2023-07-13T12:36:37;10.93;;;2.33;;
5569;SDS011;2808;51.240;6.794;2023-07-13T12:39:22;7.37;;;1.90;;
5569;SDS011;2808;51.240;6.794;2023-07-13T12:42:17;8.33;;;1.70;;
5569;SDS011;2808;51.240;6.794;2023-07-13T12:52:10;6.40;;;2.10;;
5569;SDS011;2808;51.240;6.794;2023-07-13T12:54:42;7.13;;;1.90;;
5569;SDS011;2808;51.240;6.794;2023-07-13T12:57:18;5.50;;;1.97;;
5569;SDS011;2808;51.240;6.794;2023-07-13T12:59:46;8.73;;;1.87;;
5569;SDS011;2808;51.240;6.794;2023-07-13T13:02:22;7.37;;;1.90;;
5569;SDS011;2808;51.240;6.794;2023-07-13T13:04:54;10.63;;;2.10;;
5569;SDS011;2808;51.240;6.794;2023-07-13T13:07:24;11.90;;;2.20;;
5569;SDS011;2808;51.240;6.794;2023-07-13T13:09:52;8.43;;;1.83;;
5569;SDS011;2808;51.240;6.794;2023-07-13T13:12:20;10.63;;;2.07;;
5569;SDS011;2808;51.240;6.794;2023-07-13T13:14:49;4.80;;;1.63;;
5569;SDS011;2808;51.240;6.794;2023-07-13T13:17:33;10.27;;;2.00;;
5569;SDS011;2808;51.240;6.794;2023-07-13T13:20:04;10.17;;;2.80;;
5569;SDS011;2808;51.240;6.794;2023-07-13T13:22:43;8.13;;;2.17;;
5569;SDS011;2808;51.240;6.794;2023-07-13T13:25:11;5.17;;;1.77;;
5569;SDS011;2808;51.240;6.794;2023-07-13T13:27:39;6.23;;;1.80;;
5569;SDS011;2808;51.240;6.794;2023-07-13T13:30:13;5.87;;;1.70;;
5569;SDS011;2808;51.240;6.794;2023-07-13T13:32:44;5.77;;;1.73;;
5569;SDS011;2808;51.240;6.794;2023-07-13T13:35:16;4.93;;;1.70;;
5569;SDS011;2808;51.240;6.794;2023-07-13T13:37:47;6.40;;;1.90;;
5569;SDS011;2808;51.240;6.794;2023-07-13T13:40:16;13.93;;;1.80;;
5569;SDS011;2808;51.240;6.794;2023-07-13T13:42:45;6.07;;;2.00;;
5569;SDS011;2808;51.240;6.794;2023-07-13T13:45:12;7.40;;;1.70;;
5569;SDS011;2808;51.240;6.794;2023-07-13T13:47:43;6.47;;;2.03;;
5569;SDS011;2808;51.240;6.794;2023-07-13T13:50:13;6.53;;;2.00;;
5569;SDS011;2808;51.240;6.794;2023-07-13T13:52:43;4.57;;;1.80;;
5569;SDS011;2808;51.240;6.794;2023-07-13T13:55:15;6.23;;;1.90;;
5569;SDS011;2808;51.240;6.794;2023-07-13T13:57:45;5.97;;;1.83;;
5569;SDS011;2808;51.240;6.794;2023-07-13T14:00:13;9.40;;;1.67;;
5569;SDS011;2808;51.240;6.794;2023-07-13T14:02:44;8.30;;;2.10;;
5569;SDS011;2808;51.240;6.794;2023-07-13T14:05:15;8.40;;;2.07;;
5569;SDS011;2808;51.240;6.794;2023-07-13T14:07:45;7.33;;;1.67;;
5569;SDS011;2808;51.240;6.794;2023-07-13T14:20:11;6.20;;;1.80;;
5569;SDS011;2808;51.240;6.794;2023-07-13T14:22:39;6.60;;;1.90;;
5569;SDS011;2808;51.240;6.794;2023-07-13T14:25:10;8.43;;;1.73;;
5569;SDS011;2808;51.240;6.794;2023-07-13T14:27:40;6.40;;;1.90;;
5569;SDS011;2808;51.240;6.794;2023-07-13T14:30:12;5.57;;;1.90;;
5569;SDS011;2808;51.240;6.794;2023-07-13T14:32:40;5.40;;;1.80;;
5569;SDS011;2808;51.240;6.794;2023-07-13T14:35:11;8.30;;;2.40;;
5569;SDS011;2808;51.240;6.794;2023-07-13T14:37:39;7.10;;;2.30;;
5569;SDS011;2808;51.240;6.794;2023-07-13T14:40:12;7.90;;;2.10;;
5569;SDS011;2808;51.240;6.794;2023-07-13T14:42:40;9.97;;;2.10;;
5569;SDS011;2808;51.240;6.794;2023-07-13T14:45:12;6.73;;;2.23;;
5569;SDS011;2808;51.240;6.794;2023-07-13T14:47:41;6.13;;;2.10;;
5569;SDS011;2808;51.240;6.794;2023-07-13T14:50:14;7.03;;;2.17;;
5569;SDS011;2808;51.240;6.794;2023-07-13T14:52:44;9.77;;;2.97;;
5569;SDS011;2808;51.240;6.794;2023-07-13T14:55:13;8.00;;;2.07;;
5569;SDS011;2808;51.240;6.794;2023-07-13T14:57:42;4.80;;;1.90;;
5569;SDS011;2808;51.240;6.794;2023-07-13T15:00:14;8.13;;;2.40;;
5569;SDS011;2808;51.240;6.794;2023-07-13T15:02:43;14.17;;;2.50;;
5569;SDS011;2808;51.240;6.794;2023-07-13T15:05:16;8.17;;;2.37;;
5569;SDS011;2808;51.240;6.794;2023-07-13T15:07:48;5.97;;;2.40;;
5569;SDS011;2808;51.240;6.794;2023-07-13T15:10:16;8.20;;;2.30;;
5569;SDS011;2808;51.240;6.794;2023-07-13T15:12:45;10.00;;;2.40;;
5569;SDS011;2808;51.240;6.794;2023-07-13T15:15:13;9.53;;;2.57;;
5569;SDS011;2808;51.240;6.794;2023-07-13T15:17:41;7.97;;;2.73;;
5569;SDS011;2808;51.240;6.794;2023-07-13T15:20:17;8.63;;;2.67;;
5569;SDS011;2808;51.240;6.794;2023-07-13T15:22:47;9.60;;;2.40;;
5569;SDS011;2808;51.240;6.794;2023-07-13T15:25:16;8.10;;;2.27;;
5569;SDS011;2808;51.240;6.794;2023-07-13T15:27:47;6.70;;;2.23;;
5569;SDS011;2808;51.240;6.794;2023-07-13T15:30:15;7.13;;;1.80;;
5569;SDS011;2808;51.240;6.794;2023-07-13T15:32:43;7.90;;;2.50;;
5569;SDS011;2808;51.240;6.794;2023-07-13T15:35:16;7.20;;;2.33;;
5569;SDS011;2808;51.240;6.794;2023-07-13T15:37:48;10.13;;;2.00;;
5569;SDS011;2808;51.240;6.794;2023-07-13T15:40:22;6.97;;;2.07;;
5569;SDS011;2808;51.240;6.794;2023-07-13T15:42:58;6.83;;;2.23;;
5569;SDS011;2808;51.240;6.794;2023-07-13T15:45:26;9.87;;;2.30;;
5569;SDS011;2808;51.240;6.794;2023-07-13T15:47:54;7.70;;;2.23;;
5569;SDS011;2808;51.240;6.794;2023-07-13T15:53:34;8.70;;;2.40;;
5569;SDS011;2808;51.240;6.794;2023-07-13T15:56:06;5.30;;;2.00;;
5569;SDS011;2808;51.240;6.794;2023-07-13T15:58:43;7.60;;;2.40;;
5569;SDS011;2808;51.240;6.794;2023-07-13T16:01:11;10.90;;;2.57;;
5569;SDS011;2808;51.240;6.794;2023-07-13T16:03:39;18.83;;;10.20;;